Time;durP1;ratioP1;P1;durP2;ratioP2;P2;SDS_P1;SDS_P2;PMS_P1;PMS_P2;Temp;Humidity;BMP_temperature;BMP_pressure;BME280_temperature;BME280_humidity;BME280_pressure;Samples;Min_cycle;Max_cycle;Signal;HPM_P1;HPM_P2
2021/07/19 00:00:53;;;;;;;11.00;2.40;;;;;;;18.97;68.91;100341.56;125932;1093;22845;-58
2021/07/19 00:03:24;;;;;;;11.63;3.10;;;;;;;18.92;68.86;100336.73;125955;1092;25990;-56
2021/07/19 00:05:56;;;;;;;11.40;2.67;;;;;;;18.88;68.68;100337.05;125824;1093;22791;-59
2021/07/19 00:08:27;;;;;;;11.73;2.40;;;;;;;18.84;68.66;100341.48;125850;1093;22790;-57
2021/07/19 00:10:58;;;;;;;9.80;2.20;;;;;;;18.78;68.99;100337.95;125853;1092;22845;-58
2021/07/19 00:13:30;;;;;;;15.65;3.25;;;;;;;18.73;68.82;100339.55;125842;1093;22925;-57
2021/07/19 00:16:01;;;;;;;15.18;2.63;;;;;;;18.68;68.85;100336.80;125829;1093;22791;-59
2021/07/19 00:18:33;;;;;;;10.53;2.73;;;;;;;18.62;69.03;100333.28;125830;1093;25859;-55
2021/07/19 00:21:05;;;;;;;10.87;2.93;;;;;;;18.54;69.06;100339.52;125862;1092;22745;-57
2021/07/19 00:23:37;;;;;;;11.60;2.73;;;;;;;18.51;69.05;100343.43;125821;1092;22793;-58
2021/07/19 00:26:08;;;;;;;10.53;2.40;;;;;;;18.46;69.49;100346.30;125753;1093;22823;-58
2021/07/19 00:28:42;;;;;;;9.60;2.37;;;;;;;18.40;69.37;100343.52;125815;1092;26859;-56
2021/07/19 00:31:15;;;;;;;8.53;2.18;;;;;;;18.34;69.38;100342.05;125885;1093;22777;-56
2021/07/19 00:33:47;;;;;;;10.13;2.20;;;;;;;18.27;69.47;100343.39;125833;1093;22784;-57
2021/07/19 00:36:18;;;;;;;9.20;2.77;;;;;;;18.23;69.89;100348.58;125867;1091;26257;-56
2021/07/19 00:38:51;;;;;;;14.80;2.97;;;;;;;18.20;70.17;100351.70;125796;1093;22745;-58
2021/07/19 00:41:23;;;;;;;11.00;3.67;;;;;;;18.15;70.10;100353.28;125875;1093;25835;-60
2021/07/19 00:43:55;;;;;;;11.87;2.53;;;;;;;18.09;69.87;100348.98;125877;1092;22935;-58
2021/07/19 00:46:26;;;;;;;8.60;2.40;;;;;;;18.05;69.85;100349.28;125837;1093;22790;-58
2021/07/19 00:48:58;;;;;;;8.97;2.70;;;;;;;18.00;70.37;100350.09;125893;1093;22847;-57
2021/07/19 00:51:30;;;;;;;8.57;2.30;;;;;;;17.96;69.98;100343.22;125864;1093;22802;-59
2021/07/19 00:54:03;;;;;;;15.00;3.10;;;;;;;17.90;70.10;100348.90;125962;1093;28984;-58
2021/07/19 00:56:40;;;;;;;9.20;2.60;;;;;;;17.86;70.42;100354.07;125898;1092;26146;-58
2021/07/19 00:59:14;;;;;;;10.70;3.00;;;;;;;17.83;70.26;100351.55;125943;1093;22764;-58
2021/07/19 01:01:49;;;;;;;9.60;2.93;;;;;;;17.78;70.42;100361.59;126153;1093;22772;-58
2021/07/19 01:04:22;;;;;;;11.13;3.33;;;;;;;17.73;70.97;100360.34;125924;1092;22767;-58
2021/07/19 01:06:57;;;;;;;11.55;3.60;;;;;;;17.68;71.40;100375.28;125945;1093;24435;-58
2021/07/19 01:09:30;;;;;;;10.70;3.00;;;;;;;17.57;71.38;100377.41;125927;1093;23345;-58
2021/07/19 01:12:03;;;;;;;12.00;3.00;;;;;;;17.43;71.50;100365.17;125989;1093;22807;-56
2021/07/19 01:14:35;;;;;;;12.60;2.87;;;;;;;17.30;71.68;100364.25;125961;1092;24294;-58
2021/07/19 01:17:07;;;;;;;10.45;3.70;;;;;;;17.23;71.30;100374.03;125815;1093;22854;-55
2021/07/19 01:19:41;;;;;;;11.50;3.90;;;;;;;17.24;71.84;100363.48;125851;1093;22745;-57
2021/07/19 01:22:38;;;;;;;13.25;3.30;;;;;;;17.24;71.75;100361.44;125936;1093;22770;-58
2021/07/19 01:25:25;;;;;;;9.20;2.77;;;;;;;17.21;71.61;100368.14;125803;1093;22751;-57
2021/07/19 01:28:15;;;;;;;11.90;3.30;;;;;;;17.17;71.36;100362.02;125938;1093;22868;-55
2021/07/19 01:30:46;;;;;;;;;;;;;;;17.14;71.80;100359.45;125928;1093;22767;-55
2021/07/19 01:33:19;;;;;;;12.30;4.25;;;;;;;17.10;71.91;100375.88;126002;1093;21457;-59
2021/07/19 01:35:53;;;;;;;14.70;3.60;;;;;;;17.10;71.84;100370.24;125903;1092;26717;-58
2021/07/19 01:38:26;;;;;;;11.10;3.50;;;;;;;17.09;71.97;100369.47;125897;1093;25868;-59
2021/07/19 01:40:58;;;;;;;10.97;3.67;;;;;;;17.08;71.75;100370.00;125816;1093;22794;-56
2021/07/19 01:43:30;;;;;;;11.90;3.80;;;;;;;17.04;72.00;100378.74;125832;1092;22793;-57
2021/07/19 01:46:04;;;;;;;12.50;3.90;;;;;;;17.02;71.83;100380.54;125896;1093;22874;-56
2021/07/19 01:48:38;;;;;;;8.90;2.90;;;;;;;16.98;71.97;100373.14;125860;1093;24676;-56
2021/07/19 01:51:11;;;;;;;11.00;3.50;;;;;;;16.96;71.92;100367.25;125965;1093;22822;-58
2021/07/19 01:53:43;;;;;;;10.90;3.10;;;;;;;16.97;71.93;100373.64;125976;1092;26239;-59
2021/07/19 01:56:15;;;;;;;13.40;3.80;;;;;;;16.95;71.71;100368.52;125858;1093;22791;-59
2021/07/19 01:58:48;;;;;;;10.75;3.20;;;;;;;16.93;71.84;100367.50;125862;1093;26392;-58
2021/07/19 02:01:20;;;;;;;10.90;3.60;;;;;;;16.88;71.87;100376.77;126079;1093;25868;-58
2021/07/19 02:03:53;;;;;;;10.95;3.60;;;;;;;16.83;72.00;100369.87;126687;1093;22636;-59
2021/07/19 02:06:25;;;;;;;9.55;3.15;;;;;;;16.79;72.34;100371.42;125810;1093;22790;-60
2021/07/19 02:09:05;;;;;;;10.35;3.70;;;;;;;16.75;72.11;100377.34;126037;1093;22763;-62
2021/07/19 02:11:38;;;;;;;12.70;3.87;;;;;;;16.71;72.54;100370.43;125838;1093;22828;-60
2021/07/19 02:14:09;;;;;;;12.90;4.40;;;;;;;16.68;72.28;100375.05;125882;1093;24423;-60
2021/07/19 02:16:46;;;;;;;12.15;4.00;;;;;;;16.64;72.39;100370.95;125774;1093;22963;-62
2021/07/19 02:19:19;;;;;;;10.95;4.20;;;;;;;16.60;72.24;100368.41;125859;1093;22872;-62
2021/07/19 02:21:54;;;;;;;11.80;4.00;;;;;;;16.54;72.42;100370.48;125903;1093;27248;-62
2021/07/19 02:24:28;;;;;;;14.00;4.35;;;;;;;16.50;72.63;100372.80;125823;1093;22838;-62
2021/07/19 02:27:01;;;;;;;14.47;4.63;;;;;;;16.47;72.60;100364.59;125945;1093;22770;-62
2021/07/19 02:29:33;;;;;;;12.70;3.80;;;;;;;16.46;72.41;100379.95;125789;1093;22800;-62
2021/07/19 02:32:05;;;;;;;14.40;4.75;;;;;;;16.43;72.74;100378.94;125978;1093;27574;-62
2021/07/19 02:34:39;;;;;;;12.30;4.40;;;;;;;16.39;72.59;100369.23;125933;1093;22812;-62
2021/07/19 02:37:11;;;;;;;12.30;3.70;;;;;;;16.36;72.87;100364.62;125842;1093;22807;-62
2021/07/19 02:39:45;;;;;;;10.65;3.50;;;;;;;16.35;72.94;100377.16;125870;1093;26392;-62
2021/07/19 02:42:16;;;;;;;13.40;4.25;;;;;;;16.33;72.61;100372.05;125909;1092;22764;-62
2021/07/19 02:44:50;;;;;;;13.63;4.17;;;;;;;16.32;72.98;100376.16;125825;1093;22772;-62
2021/07/19 02:47:21;;;;;;;15.85;5.45;;;;;;;16.30;72.84;100386.41;125781;1093;26730;-62
2021/07/19 02:49:53;;;;;;;20.07;7.50;;;;;;;16.28;72.93;100380.52;125803;1092;25633;-62
2021/07/19 02:52:26;;;;;;;19.75;7.90;;;;;;;16.26;73.12;100385.90;125880;1093;22951;-62
2021/07/19 02:54:58;;;;;;;19.60;7.80;;;;;;;16.25;73.19;100378.72;125867;1091;22803;-62
2021/07/19 02:57:30;;;;;;;17.60;6.10;;;;;;;16.24;73.15;100382.83;125734;1091;22773;-61
2021/07/19 03:00:01;;;;;;;16.45;6.10;;;;;;;16.21;73.57;100370.54;125869;1092;25970;-62
2021/07/19 03:02:33;;;;;;;14.60;5.80;;;;;;;16.19;73.62;100373.10;125745;1093;27157;-62
2021/07/19 03:05:07;;;;;;;16.30;5.60;;;;;;;16.16;73.47;100377.71;125821;1093;22764;-62
2021/07/19 03:07:40;;;;;;;15.10;4.90;;;;;;;16.17;73.34;100379.26;126123;1093;27303;-62
2021/07/19 03:10:13;;;;;;;15.60;4.85;;;;;;;16.17;73.43;100384.89;125850;1092;22776;-61
2021/07/19 03:12:46;;;;;;;15.95;4.50;;;;;;;16.19;73.84;100390.00;125994;1092;26504;-62
2021/07/19 03:15:18;;;;;;;16.20;4.95;;;;;;;16.20;73.83;100385.92;125746;1093;26514;-62
2021/07/19 03:17:52;;;;;;;14.13;4.43;;;;;;;16.18;74.23;100380.78;125882;1093;22925;-61
2021/07/19 03:20:25;;;;;;;16.75;5.10;;;;;;;16.19;74.36;100387.19;125758;1093;28663;-62
2021/07/19 03:22:58;;;;;;;14.80;4.80;;;;;;;16.17;74.24;100384.89;125824;1093;25964;-62
2021/07/19 03:25:35;;;;;;;13.45;4.35;;;;;;;16.17;74.47;100381.30;125782;1093;22932;-62
2021/07/19 03:28:11;;;;;;;16.37;5.20;;;;;;;16.18;74.78;100377.96;126096;1093;22962;-62
2021/07/19 03:30:44;;;;;;;15.50;5.35;;;;;;;16.17;74.46;100381.30;125723;1093;22774;-62
2021/07/19 03:33:16;;;;;;;14.15;4.90;;;;;;;16.14;74.74;100377.45;125745;1093;27607;-62
2021/07/19 03:35:48;;;;;;;16.60;5.10;;;;;;;16.13;74.93;100377.98;125878;1093;22939;-62
2021/07/19 03:38:21;;;;;;;16.47;4.93;;;;;;;16.13;74.78;100369.53;125754;1093;26270;-62
2021/07/19 03:40:56;;;;;;;13.85;4.70;;;;;;;16.11;74.89;100367.23;125894;1093;22767;-62
2021/07/19 03:43:30;;;;;;;16.20;5.95;;;;;;;16.11;75.25;100364.42;125759;1093;22803;-62
2021/07/19 03:46:02;;;;;;;18.70;6.40;;;;;;;16.12;75.43;100362.34;125862;1091;26257;-61
2021/07/19 03:48:35;;;;;;;22.15;5.85;;;;;;;16.13;75.74;100369.53;125675;1093;22868;-61
2021/07/19 03:51:07;;;;;;;27.30;5.50;;;;;;;16.16;75.59;100376.94;125516;1092;22920;-62
2021/07/19 03:53:40;;;;;;;20.67;5.27;;;;;;;16.19;76.16;100382.33;125735;1092;24436;-65
2021/07/19 03:56:12;;;;;;;25.30;5.40;;;;;;;16.23;75.51;100382.06;125825;1093;22797;-61
2021/07/19 03:58:46;;;;;;;25.10;6.30;;;;;;;16.29;76.29;100384.86;125811;1093;22794;-62
2021/07/19 04:01:18;;;;;;;19.80;6.10;;;;;;;16.29;76.30;100385.63;125682;1093;22811;-62
2021/07/19 04:03:54;;;;;;;21.00;5.60;;;;;;;16.32;76.52;100387.43;125794;1092;22848;-61
2021/07/19 04:06:26;;;;;;;19.13;5.83;;;;;;;16.31;76.92;100385.88;125822;1093;25968;-61
2021/07/19 04:08:58;;;;;;;19.10;5.10;;;;;;;16.31;76.57;100382.28;125847;1093;22948;-62
2021/07/19 04:11:31;;;;;;;18.10;6.15;;;;;;;16.34;76.70;100373.59;126040;1093;26383;-61
2021/07/19 04:14:02;;;;;;;19.55;5.40;;;;;;;16.39;76.94;100383.33;125751;1093;22778;-61
2021/07/19 04:16:35;;;;;;;17.60;5.00;;;;;;;16.42;77.11;100391.50;126132;1093;22826;-61
2021/07/19 04:19:07;;;;;;;19.25;5.60;;;;;;;16.48;77.26;100383.80;125883;1093;22848;-61
2021/07/19 04:21:39;;;;;;;16.55;4.90;;;;;;;16.54;77.28;100380.98;125870;1092;22772;-61
2021/07/19 04:24:11;;;;;;;17.95;5.80;;;;;;;16.61;77.22;100377.64;125725;1093;22713;-62
2021/07/19 04:26:44;;;;;;;19.70;5.50;;;;;;;16.66;77.39;100369.16;125879;1093;22821;-61
2021/07/19 04:29:16;;;;;;;20.35;6.95;;;;;;;16.74;77.43;100380.66;125799;1093;22800;-61
2021/07/19 04:31:54;;;;;;;19.27;5.77;;;;;;;16.81;77.59;100389.36;125935;1093;22767;-61
2021/07/19 04:34:33;;;;;;;17.20;6.00;;;;;;;16.90;77.68;100389.05;125750;1093;22828;-61
2021/07/19 04:37:07;;;;;;;17.60;6.33;;;;;;;16.98;78.23;100392.88;125746;1093;27951;-62
2021/07/19 04:39:41;;;;;;;14.55;5.45;;;;;;;17.06;77.86;100392.31;125811;1093;22781;-63
2021/07/19 04:42:13;;;;;;;17.15;6.95;;;;;;;17.15;78.14;100387.16;126048;1093;22880;-62
2021/07/19 04:44:45;;;;;;;22.35;6.40;;;;;;;17.24;78.24;100386.05;125770;1093;22848;-61
2021/07/19 04:47:16;;;;;;;14.80;5.10;;;;;;;17.32;78.37;100384.98;125801;1093;22800;-61
2021/07/19 04:49:51;;;;;;;20.50;6.00;;;;;;;17.41;78.61;100378.27;125977;1093;23508;-61
2021/07/19 04:52:22;;;;;;;21.00;7.30;;;;;;;17.52;78.67;100386.70;125733;1091;22775;-62
2021/07/19 04:54:56;;;;;;;18.03;6.57;;;;;;;17.63;78.94;100383.77;125778;1093;22798;-62
2021/07/19 04:57:35;;;;;;;14.45;5.85;;;;;;;17.73;78.90;100385.75;125868;1092;22827;-62
2021/07/19 05:00:09;;;;;;;16.80;7.55;;;;;;;17.82;78.74;100381.84;125828;1093;24436;-62
2021/07/19 05:02:44;;;;;;;19.70;6.20;;;;;;;17.91;78.69;100383.56;125956;1093;25852;-62
2021/07/19 05:05:18;;;;;;;19.35;5.85;;;;;;;18.00;78.42;100374.77;129526;1092;22544;-62
2021/07/19 05:07:50;;;;;;;16.20;6.80;;;;;;;18.09;78.31;100374.41;125840;1093;22790;-62
2021/07/19 05:10:26;;;;;;;20.80;7.10;;;;;;;18.20;78.69;100386.39;125711;1092;22806;-62
2021/07/19 05:12:59;;;;;;;22.65;6.90;;;;;;;18.26;78.49;100375.80;126265;1093;22940;-62
2021/07/19 05:15:31;;;;;;;18.00;6.57;;;;;;;18.32;78.30;100378.55;126086;1093;22861;-62
2021/07/19 05:18:03;;;;;;;18.80;7.70;;;;;;;18.38;78.42;100365.89;126115;1093;22807;-63
2021/07/19 05:20:36;;;;;;;18.85;7.30;;;;;;;18.45;77.90;100364.57;125892;1093;25663;-62
2021/07/19 05:23:11;;;;;;;23.05;7.45;;;;;;;18.53;77.92;100359.86;125984;1093;23480;-62
2021/07/19 05:25:42;;;;;;;23.10;7.20;;;;;;;18.61;78.02;100363.61;125768;1093;27276;-62
2021/07/19 05:28:15;;;;;;;22.35;7.40;;;;;;;18.72;77.90;100371.20;125838;1093;24167;-62
2021/07/19 05:30:49;;;;;;;19.63;7.80;;;;;;;18.78;77.91;100366.24;125924;1093;22777;-62
2021/07/19 05:33:22;;;;;;;25.80;8.23;;;;;;;18.85;77.57;100365.65;125846;1093;22784;-62
2021/07/19 05:35:54;;;;;;;21.73;7.87;;;;;;;18.96;77.45;100371.14;125913;1093;22765;-62
2021/07/19 05:38:28;;;;;;;22.07;7.00;;;;;;;19.03;77.72;100373.38;125823;1092;22932;-62
2021/07/19 05:41:00;;;;;;;20.03;7.57;;;;;;;19.11;77.26;100379.95;125807;1093;22819;-62
2021/07/19 05:43:32;;;;;;;24.60;7.95;;;;;;;19.21;77.77;100376.21;125829;1093;22785;-62
2021/07/19 05:46:03;;;;;;;22.40;7.17;;;;;;;19.30;77.40;100369.41;125896;1093;26289;-62
2021/07/19 05:48:35;;;;;;;22.20;6.48;;;;;;;19.39;76.77;100374.69;125763;1093;25579;-62
2021/07/19 05:51:06;;;;;;;22.90;6.57;;;;;;;19.50;76.83;100380.20;125869;1093;22773;-62
2021/07/19 05:53:40;;;;;;;21.63;6.63;;;;;;;19.57;76.48;100379.58;125798;1093;27702;-62
2021/07/19 05:56:13;;;;;;;17.18;5.63;;;;;;;19.65;75.96;100391.81;125829;1093;26226;-62
2021/07/19 05:58:46;;;;;;;17.90;5.65;;;;;;;19.72;75.65;100390.42;125860;1093;24847;-62
2021/07/19 06:01:19;;;;;;;19.28;5.33;;;;;;;19.76;75.00;100379.55;125838;1093;25967;-62
2021/07/19 06:03:50;;;;;;;19.15;5.20;;;;;;;19.80;74.75;100389.23;125878;1093;22804;-62
2021/07/19 06:06:22;;;;;;;19.55;5.75;;;;;;;19.85;74.91;100396.12;125853;1092;22803;-62
2021/07/19 06:08:53;;;;;;;22.87;5.47;;;;;;;19.91;74.50;100382.63;125775;1093;22855;-62
2021/07/19 06:11:24;;;;;;;18.00;5.20;;;;;;;19.94;74.22;100382.33;125871;1093;22767;-62
2021/07/19 06:13:56;;;;;;;17.98;4.63;;;;;;;20.03;73.87;100386.79;125750;1093;22720;-62
2021/07/19 06:16:30;;;;;;;17.33;5.35;;;;;;;20.08;73.77;100386.72;125735;1093;22771;-62
2021/07/19 06:19:02;;;;;;;13.93;4.53;;;;;;;20.18;73.31;100396.33;125797;1093;27320;-62
2021/07/19 06:21:33;;;;;;;18.35;4.73;;;;;;;20.27;73.09;100394.41;125692;1092;27156;-62
2021/07/19 06:24:05;;;;;;;17.58;4.85;;;;;;;20.34;73.00;100399.44;125697;1093;22792;-62
2021/07/19 06:26:39;;;;;;;15.50;5.65;;;;;;;20.41;72.87;100393.11;125909;1092;22925;-62
2021/07/19 06:29:11;;;;;;;14.13;3.80;;;;;;;20.55;72.85;100386.91;125882;1093;22826;-63
2021/07/19 06:31:42;;;;;;;11.47;3.37;;;;;;;20.69;71.57;100382.01;125930;1093;22777;-62
2021/07/19 06:34:15;;;;;;;8.13;2.45;;;;;;;20.80;70.95;100385.38;125800;1093;22794;-62
2021/07/19 06:36:46;;;;;;;10.90;3.08;;;;;;;20.89;70.04;100382.10;125855;1093;24428;-62
2021/07/19 06:39:18;;;;;;;14.08;2.50;;;;;;;20.96;69.87;100384.26;125802;1092;22800;-62
2021/07/19 06:41:50;;;;;;;11.18;2.63;;;;;;;21.04;69.98;100387.24;125974;1093;24482;-62
2021/07/19 06:44:21;;;;;;;11.93;2.93;;;;;;;21.10;69.28;100387.11;125801;1093;22780;-62
2021/07/19 06:46:56;;;;;;;11.93;2.40;;;;;;;21.15;69.39;100386.22;125769;1093;24435;-62
2021/07/19 06:49:29;;;;;;;10.90;3.45;;;;;;;21.24;68.97;100389.38;125716;1093;25858;-62
2021/07/19 06:52:01;;;;;;;11.33;3.18;;;;;;;21.33;68.69;100382.48;125775;1093;22800;-63
2021/07/19 06:54:34;;;;;;;12.85;3.00;;;;;;;21.37;68.28;100391.42;125992;1093;27551;-62
2021/07/19 06:57:06;;;;;;;17.18;4.45;;;;;;;21.42;68.40;100390.52;125822;1093;22852;-62
2021/07/19 06:59:37;;;;;;;15.23;3.77;;;;;;;21.49;68.56;100392.69;125985;1092;22767;-62
2021/07/19 07:02:09;;;;;;;11.13;3.13;;;;;;;21.56;68.34;100392.76;125660;1093;22775;-63
2021/07/19 07:04:41;;;;;;;16.73;4.15;;;;;;;21.62;68.11;100398.33;125684;1093;22777;-62
2021/07/19 07:07:14;;;;;;;17.70;3.40;;;;;;;21.68;68.33;100399.70;125655;1092;22800;-62
2021/07/19 07:09:45;;;;;;;14.30;3.90;;;;;;;21.75;67.32;100401.86;125657;1092;22794;-62
2021/07/19 07:12:17;;;;;;;15.55;3.43;;;;;;;21.77;67.19;100395.62;125721;1092;22800;-63
2021/07/19 07:14:48;;;;;;;12.18;3.20;;;;;;;21.80;67.27;100393.76;125807;1093;22764;-62
2021/07/19 07:17:21;;;;;;;15.90;3.88;;;;;;;21.89;67.19;100391.21;125698;1092;22800;-62
2021/07/19 07:19:53;;;;;;;14.05;2.95;;;;;;;21.95;66.68;100388.25;125706;1092;22794;-62
2021/07/19 07:22:25;;;;;;;13.98;4.08;;;;;;;21.98;66.86;100390.73;125899;1093;22763;-62
2021/07/19 07:24:57;;;;;;;11.05;3.10;;;;;;;22.06;66.72;100385.11;125788;1093;24477;-62
2021/07/19 07:27:28;;;;;;;17.13;4.05;;;;;;;22.10;66.20;100379.86;125847;1093;25832;-62
2021/07/19 07:29:59;;;;;;;14.25;3.58;;;;;;;22.18;66.24;100375.73;125774;1093;22773;-62
2021/07/19 07:32:35;;;;;;;14.40;3.03;;;;;;;22.29;66.20;100378.30;125790;1092;25980;-62
2021/07/19 07:35:08;;;;;;;12.50;3.90;;;;;;;22.40;66.01;100368.70;125938;1093;26988;-62
2021/07/19 07:37:40;;;;;;;17.05;3.93;;;;;;;22.45;66.00;100371.39;125796;1093;27667;-62
2021/07/19 07:40:15;;;;;;;13.93;3.68;;;;;;;22.49;65.55;100371.05;125894;1093;22758;-62
2021/07/19 07:42:47;;;;;;;12.13;3.65;;;;;;;22.54;65.12;100370.13;126180;1093;22791;-62
2021/07/19 07:45:19;;;;;;;14.73;4.27;;;;;;;22.54;64.74;100367.28;125880;1093;26923;-62
2021/07/19 07:47:50;;;;;;;15.33;4.18;;;;;;;22.50;64.12;100369.72;125966;1093;22777;-63
2021/07/19 07:50:22;;;;;;;20.67;4.33;;;;;;;22.46;64.06;100370.08;125819;1093;23042;-62
2021/07/19 07:52:55;;;;;;;13.48;3.93;;;;;;;22.50;64.27;100366.88;125862;1093;22925;-62
2021/07/19 07:55:28;;;;;;;15.53;4.73;;;;;;;22.54;64.47;100370.89;125865;1093;22854;-62
2021/07/19 07:58:01;;;;;;;14.98;3.60;;;;;;;22.63;63.98;100372.49;125843;1093;25855;-62
2021/07/19 08:00:32;;;;;;;13.43;3.70;;;;;;;22.61;63.17;100371.52;125946;1093;22802;-62
2021/07/19 08:03:04;;;;;;;16.63;4.10;;;;;;;22.51;62.92;100366.30;125777;1093;25007;-63
2021/07/19 08:05:35;;;;;;;13.18;3.95;;;;;;;22.43;62.73;100367.57;125868;1093;26486;-62
2021/07/19 08:08:08;;;;;;;13.28;4.00;;;;;;;22.33;62.83;100364.48;125844;1093;22940;-64
2021/07/19 08:10:39;;;;;;;14.23;4.23;;;;;;;22.29;62.72;100369.00;126390;1092;22760;-60
2021/07/19 08:13:11;;;;;;;11.15;3.70;;;;;;;22.25;62.78;100369.36;125721;1093;25864;-59
2021/07/19 08:15:47;;;;;;;13.58;3.63;;;;;;;22.28;62.73;100356.88;125852;1092;22763;-61
2021/07/19 08:18:19;;;;;;;10.60;3.15;;;;;;;22.29;62.39;100357.62;125756;1093;25769;-60
2021/07/19 08:20:54;;;;;;;9.88;3.20;;;;;;;22.25;62.38;100360.83;125836;1093;22793;-59
2021/07/19 08:23:27;;;;;;;12.88;3.40;;;;;;;22.24;62.50;100372.77;125737;1093;22767;-62
2021/07/19 08:26:00;;;;;;;14.40;3.88;;;;;;;22.23;62.76;100363.47;125791;1093;25939;-59
2021/07/19 08:28:31;;;;;;;13.33;4.00;;;;;;;22.21;62.13;100362.49;125746;1092;22767;-60
2021/07/19 08:31:03;;;;;;;18.45;4.30;;;;;;;22.14;62.27;100371.74;125715;1093;22897;-61
2021/07/19 08:33:35;;;;;;;12.50;3.53;;;;;;;22.09;62.30;100375.48;125844;1093;23511;-60
2021/07/19 08:36:08;;;;;;;13.00;4.33;;;;;;;22.04;62.88;100382.06;125763;1093;22805;-61
2021/07/19 08:38:42;;;;;;;15.83;4.88;;;;;;;21.99;62.93;100368.77;125802;1092;22794;-61
2021/07/19 08:41:14;;;;;;;13.80;5.25;;;;;;;21.99;63.24;100371.61;125926;1093;22787;-62
2021/07/19 08:43:48;;;;;;;21.90;5.95;;;;;;;22.01;62.98;100369.74;125978;1093;22774;-61
2021/07/19 08:46:19;;;;;;;16.75;4.78;;;;;;;22.10;62.60;100374.92;125873;1092;25852;-60
2021/07/19 08:48:52;;;;;;;15.87;5.10;;;;;;;22.13;62.99;100368.13;125733;1093;25868;-60
2021/07/19 08:51:25;;;;;;;17.35;5.28;;;;;;;22.24;62.72;100375.61;125807;1093;22823;-61
2021/07/19 08:53:58;;;;;;;16.98;5.08;;;;;;;22.35;62.77;100380.98;125821;1093;22797;-59
2021/07/19 08:56:32;;;;;;;16.93;5.77;;;;;;;22.47;61.75;100374.44;125681;1093;24359;-61
2021/07/19 08:59:03;;;;;;;15.50;5.93;;;;;;;22.51;61.64;100377.69;125788;1092;22786;-60
2021/07/19 09:01:36;;;;;;;16.58;4.78;;;;;;;22.54;61.45;100378.66;125772;1093;26948;-60
2021/07/19 09:04:10;;;;;;;17.15;5.90;;;;;;;22.56;61.20;100364.63;125700;1092;22775;-59
2021/07/19 09:06:42;;;;;;;16.03;4.88;;;;;;;22.57;61.14;100373.94;125759;1093;22766;-60
2021/07/19 09:09:14;;;;;;;19.68;7.10;;;;;;;22.60;61.56;100369.98;125877;1093;22815;-60
2021/07/19 09:11:54;;;;;;;15.33;5.65;;;;;;;22.61;60.77;100380.83;125797;1093;28356;-60
2021/07/19 09:14:26;;;;;;;17.35;6.00;;;;;;;22.51;61.03;100376.95;125716;1093;26700;-62
2021/07/19 09:16:58;;;;;;;17.85;5.75;;;;;;;22.51;60.82;100389.06;125787;1093;26303;-62
2021/07/19 09:19:31;;;;;;;13.93;5.60;;;;;;;22.47;60.75;100377.28;125714;1092;22794;-60
2021/07/19 09:22:04;;;;;;;15.28;6.13;;;;;;;22.41;60.75;100382.36;125859;1093;22862;-61
2021/07/19 09:24:36;;;;;;;12.35;5.08;;;;;;;22.45;61.43;100373.49;125845;1093;22784;-60
2021/07/19 09:27:09;;;;;;;14.67;5.17;;;;;;;22.49;61.28;100379.59;125854;1093;27644;-59
2021/07/19 09:29:40;;;;;;;18.50;6.05;;;;;;;22.43;61.29;100374.03;125899;1093;22822;-60
2021/07/19 09:32:13;;;;;;;16.83;6.43;;;;;;;22.39;61.29;100379.31;125855;1093;26790;-60
2021/07/19 09:34:44;;;;;;;17.28;6.15;;;;;;;22.40;61.77;100375.16;125763;1093;22788;-61
2021/07/19 09:37:17;;;;;;;13.90;5.78;;;;;;;22.38;61.62;100379.88;125757;1093;24471;-59
2021/07/19 09:39:52;;;;;;;17.80;6.68;;;;;;;22.36;62.00;100385.37;125772;1093;22824;-59
2021/07/19 09:42:25;;;;;;;18.18;6.75;;;;;;;22.30;61.96;100384.75;125737;1092;22767;-60
2021/07/19 09:44:58;;;;;;;17.68;6.58;;;;;;;22.16;62.69;100394.70;125854;1093;22828;-61
2021/07/19 09:47:36;;;;;;;22.80;7.20;;;;;;;22.00;62.75;100385.27;126063;1093;22748;-62
2021/07/19 09:50:13;;;;;;;17.95;6.43;;;;;;;21.90;63.16;100383.45;125767;1093;26727;-60
2021/07/19 09:52:45;;;;;;;20.50;6.98;;;;;;;21.73;62.80;100390.29;125897;1093;22810;-61
2021/07/19 09:55:25;;;;;;;13.45;6.45;;;;;;;21.52;62.93;100400.86;125763;1093;25868;-60
2021/07/19 09:57:56;;;;;;;;;;;;;;;21.33;63.48;100397.41;125827;1093;24445;-60
2021/07/19 10:00:28;;;;;;;15.70;6.03;;;;;;;21.14;63.65;100405.34;125829;1092;24512;-60
2021/07/19 10:03:10;;;;;;;17.13;6.45;;;;;;;20.92;64.31;100400.86;125834;1093;22790;-62
2021/07/19 10:05:41;;;;;;;16.13;6.13;;;;;;;20.74;64.81;100407.42;125877;1093;22770;-62
2021/07/19 10:08:23;;;;;;;15.60;6.30;;;;;;;20.61;65.34;100403.83;125927;1093;22854;-61
2021/07/19 10:10:54;;;;;;;14.48;5.48;;;;;;;20.49;65.65;100408.94;125829;1093;22858;-61
2021/07/19 10:13:34;;;;;;;15.95;6.35;;;;;;;20.43;65.87;100413.95;126113;1093;25679;-60
2021/07/19 10:16:08;;;;;;;17.83;5.48;;;;;;;20.36;65.68;100414.58;125752;1093;22767;-60
2021/07/19 10:18:40;;;;;;;12.93;4.50;;;;;;;20.35;65.86;100406.63;125811;1093;22763;-60
2021/07/19 10:21:14;;;;;;;12.28;4.40;;;;;;;20.31;66.37;100406.95;125782;1093;27176;-60
2021/07/19 10:23:47;;;;;;;12.70;4.00;;;;;;;20.21;66.13;100407.91;126113;1093;22784;-62
2021/07/19 10:26:19;;;;;;;16.88;5.90;;;;;;;20.18;66.84;100410.50;125817;1093;22944;-61
2021/07/19 10:28:51;;;;;;;13.15;5.35;;;;;;;20.18;66.92;100401.99;125814;1093;22838;-61
2021/07/19 10:31:24;;;;;;;14.13;4.43;;;;;;;20.19;67.47;100422.61;125817;1092;24436;-60
2021/07/19 10:33:59;;;;;;;10.58;3.88;;;;;;;20.10;67.55;100425.84;125853;1093;22764;-59
2021/07/19 10:36:35;;;;;;;12.98;4.08;;;;;;;20.03;67.84;100421.57;125985;1093;22764;-62
2021/07/19 10:39:13;;;;;;;12.65;3.98;;;;;;;20.00;67.46;100417.00;126057;1093;23964;-60
2021/07/19 10:41:47;;;;;;;14.37;3.90;;;;;;;20.07;67.62;100409.94;126082;1093;22784;-62
2021/07/19 10:44:33;;;;;;;12.35;5.43;;;;;;;20.16;67.67;100421.61;126007;1093;26236;-60
2021/07/19 10:47:22;;;;;;;11.60;3.33;;;;;;;20.19;67.80;100422.61;126079;1093;22771;-61
2021/07/19 10:50:05;;;;;;;11.30;3.38;;;;;;;20.21;67.45;100430.59;126060;1093;23078;-60
2021/07/19 10:52:40;;;;;;;13.25;3.30;;;;;;;20.20;67.07;100429.05;126238;1093;24160;-60
2021/07/19 10:55:26;;;;;;;11.50;3.27;;;;;;;20.18;67.17;100421.84;126091;1092;22797;-61
2021/07/19 10:58:08;;;;;;;11.38;2.63;;;;;;;20.20;67.40;100426.98;126147;1093;22775;-60
2021/07/19 11:00:45;;;;;;;8.50;2.63;;;;;;;20.32;67.25;100419.07;126175;1092;22858;-60
2021/07/19 11:03:19;;;;;;;11.45;3.30;;;;;;;20.38;66.88;100422.56;126115;1093;22861;-60
2021/07/19 11:06:02;;;;;;;9.67;2.57;;;;;;;20.40;66.76;100419.95;126095;1093;22813;-63
2021/07/19 11:08:47;;;;;;;11.88;2.80;;;;;;;20.48;66.92;100413.09;126254;1093;23055;-61
2021/07/19 11:11:32;;;;;;;11.35;3.05;;;;;;;20.57;67.06;100412.65;126143;1093;22768;-60
2021/07/19 11:14:16;;;;;;;16.58;2.95;;;;;;;20.71;67.04;100413.43;126213;1093;23129;-60
2021/07/19 11:16:52;;;;;;;9.58;2.75;;;;;;;20.80;65.80;100410.14;126136;1093;27211;-59
2021/07/19 11:19:39;;;;;;;7.90;2.15;;;;;;;20.81;66.10;100418.13;126281;1093;24446;-60
2021/07/19 11:22:22;;;;;;;11.10;2.40;;;;;;;20.75;64.64;100405.36;126257;1092;22742;-61
2021/07/19 11:24:58;;;;;;;9.15;2.40;;;;;;;20.74;65.04;100406.65;126535;1092;23161;-61
2021/07/19 11:27:38;;;;;;;8.75;2.60;;;;;;;20.83;64.29;100403.38;126481;1093;24284;-61
2021/07/19 11:30:18;;;;;;;11.28;2.78;;;;;;;20.91;63.78;100407.86;126313;1093;24453;-61
2021/07/19 11:32:53;;;;;;;9.68;3.40;;;;;;;21.01;63.60;100401.72;126358;1093;24182;-59
2021/07/19 11:35:26;;;;;;;11.78;3.58;;;;;;;21.14;63.80;100398.89;126258;1092;25777;-60
2021/07/19 11:38:01;;;;;;;9.80;2.65;;;;;;;21.25;62.75;100402.24;125847;1092;22812;-60